createdAt,value
2022-12-13T00:01:37.013Z,10.17
2022-12-13T00:03:38.801Z,9.93
2022-12-13T00:05:46.468Z,10.33
2022-12-13T00:07:50.954Z,10.07
2022-12-13T00:09:52.654Z,10.10
2022-12-13T00:11:54.785Z,9.53
2022-12-13T00:13:56.567Z,9.87
2022-12-13T00:16:04.022Z,9.00
2022-12-13T00:18:05.749Z,9.87
2022-12-13T00:20:07.956Z,8.70
2022-12-13T00:22:09.484Z,9.47
2022-12-13T00:24:11.621Z,9.50
2022-12-13T00:26:16.578Z,9.13
2022-12-13T00:28:20.905Z,9.40
2022-12-13T00:30:34.310Z,8.93
2022-12-13T00:32:35.903Z,9.00
2022-12-13T00:34:37.507Z,9.07
2022-12-13T00:36:39.850Z,9.03
2022-12-13T00:38:41.869Z,9.40
2022-12-13T00:40:44.627Z,8.80
2022-12-13T00:42:46.214Z,10.27
2022-12-13T00:44:47.826Z,9.47
2022-12-13T00:46:51.855Z,9.17
2022-12-13T00:48:56.203Z,9.43
2022-12-13T00:50:58.179Z,9.83
2022-12-13T00:53:01.243Z,9.57
2022-12-13T00:55:02.837Z,8.33
2022-12-13T00:57:04.421Z,8.63
2022-12-13T00:59:07.683Z,8.47
2022-12-13T01:01:14.846Z,8.43
2022-12-13T01:03:25.405Z,8.53
2022-12-13T01:06:11.191Z,9.40
2022-12-13T01:07:51.266Z,8.60
2022-12-13T01:09:52.981Z,8.70
2022-12-13T01:11:59.425Z,9.90
2022-12-13T01:14:01.148Z,8.37
2022-12-13T01:16:05.048Z,8.50
2022-12-13T01:18:06.716Z,9.07
2022-12-13T01:20:09.491Z,8.77
2022-12-13T01:22:11.875Z,8.67
2022-12-13T01:24:13.810Z,8.57
2022-12-13T01:26:20.717Z,8.03
2022-12-13T01:28:23.310Z,8.70
2022-12-13T01:30:25.270Z,8.83
2022-12-13T01:32:26.790Z,8.93
2022-12-13T01:34:31.604Z,8.97
2022-12-13T01:36:38.311Z,8.67
2022-12-13T01:38:40.046Z,9.27
2022-12-13T01:40:50.441Z,9.23
2022-12-13T01:42:52.352Z,9.63
2022-12-13T01:44:57.124Z,9.10
2022-12-13T01:47:01.373Z,9.03
2022-12-13T01:49:05.580Z,9.30
2022-12-13T01:51:27.654Z,8.97
2022-12-13T01:53:33.367Z,8.77
2022-12-13T01:55:41.296Z,9.17
2022-12-13T01:57:48.092Z,8.97
2022-12-13T01:59:50.716Z,8.47
2022-12-13T02:02:00.519Z,9.47
2022-12-13T02:04:02.762Z,8.67
2022-12-13T02:06:16.594Z,9.37
2022-12-13T02:08:20.543Z,9.33
2022-12-13T02:10:22.280Z,9.60
2022-12-13T02:12:35.973Z,9.20
2022-12-13T02:14:37.929Z,8.97
2022-12-13T02:17:06.922Z,9.20
2022-12-13T02:19:27.374Z,8.40
2022-12-13T02:21:28.951Z,8.63
2022-12-13T02:23:36.310Z,8.80
2022-12-13T02:25:54.833Z,9.10
2022-12-13T02:28:30.728Z,8.83
2022-12-13T02:30:44.885Z,9.33
2022-12-13T02:33:21.437Z,8.90
2022-12-13T02:35:37.487Z,8.10
2022-12-13T02:38:22.944Z,8.37
2022-12-13T02:40:41.960Z,8.27
2022-12-13T02:42:54.951Z,7.93
2022-12-13T02:45:20.834Z,8.60
2022-12-13T02:47:27.760Z,8.77
2022-12-13T02:49:35.878Z,8.67
2022-12-13T02:51:39.529Z,9.37
2022-12-13T02:53:42.992Z,8.57
2022-12-13T02:55:44.662Z,8.47
2022-12-13T02:57:46.607Z,9.17
2022-12-13T02:59:48.319Z,8.60
2022-12-13T03:02:21.475Z,8.57
2022-12-13T03:05:05.173Z,9.90
2022-12-13T03:07:28.549Z,8.67
2022-12-13T03:10:01.285Z,7.97
2022-12-13T03:12:51.293Z,8.30
2022-12-13T03:14:58.937Z,8.27
2022-12-13T03:17:02.696Z,8.37
2022-12-13T03:19:07.710Z,8.07
2022-12-13T03:21:13.459Z,8.07
2022-12-13T03:23:18.145Z,8.43
2022-12-13T03:25:30.969Z,8.67
2022-12-13T03:27:40.052Z,7.80
2022-12-13T03:29:41.742Z,8.83
2022-12-13T03:31:43.437Z,8.70
2022-12-13T03:33:46.645Z,8.27
2022-12-13T03:35:48.789Z,8.73
2022-12-13T03:37:53.689Z,9.47
2022-12-13T03:39:55.669Z,9.30
2022-12-13T03:41:57.482Z,8.57
2022-12-13T03:44:06.128Z,8.77
2022-12-13T03:46:09.231Z,9.00
2022-12-13T03:48:10.777Z,8.10
2022-12-13T03:50:26.130Z,8.60
2022-12-13T03:52:31.913Z,8.67
2022-12-13T03:54:33.468Z,7.97
2022-12-13T03:56:35.088Z,8.20
2022-12-13T03:58:39.153Z,8.33
2022-12-13T04:00:40.976Z,8.80
2022-12-13T04:02:43.932Z,8.87
2022-12-13T04:04:45.541Z,8.50
2022-12-13T04:06:47.267Z,8.63
2022-12-13T04:08:50.950Z,8.23
2022-12-13T04:10:53.293Z,8.93
2022-12-13T04:13:15.846Z,7.87
2022-12-13T04:15:20.452Z,8.07
2022-12-13T04:17:22.278Z,8.13
2022-12-13T04:19:24.348Z,8.53
2022-12-13T04:21:25.997Z,8.67
2022-12-13T04:23:27.704Z,8.70
2022-12-13T04:25:29.321Z,8.53
2022-12-13T04:27:31.304Z,8.70
2022-12-13T04:29:33.806Z,8.77
2022-12-13T04:31:36.667Z,8.53
2022-12-13T04:33:38.325Z,8.07
2022-12-13T04:35:39.890Z,8.90
2022-12-13T04:37:43.310Z,8.90
2022-12-13T04:39:47.804Z,8.70
2022-12-13T04:41:53.895Z,8.23
2022-12-13T04:43:56.144Z,9.10
2022-12-13T04:45:58.768Z,9.00
2022-12-13T04:48:00.448Z,8.70
2022-12-13T04:50:02.077Z,9.47
2022-12-13T04:52:06.047Z,9.13
2022-12-13T04:54:23.284Z,8.13
2022-12-13T04:56:29.428Z,9.57
2022-12-13T04:58:32.041Z,8.70
2022-12-13T05:00:33.586Z,8.40
2022-12-13T05:02:36.382Z,9.00
2022-12-13T05:04:38.296Z,9.10
2022-12-13T05:06:39.920Z,8.77
2022-12-13T05:08:42.224Z,8.47
2022-12-13T05:10:43.706Z,8.37
2022-12-13T05:12:45.432Z,8.53
2022-12-13T05:14:46.945Z,8.70
2022-12-13T05:16:48.770Z,8.57
2022-12-13T05:18:50.528Z,8.20
2022-12-13T05:20:52.374Z,8.33
2022-12-13T05:22:57.687Z,8.90
2022-12-13T05:24:59.469Z,8.87
2022-12-13T05:27:01.050Z,9.77
2022-12-13T05:29:02.808Z,9.83
2022-12-13T05:31:23.626Z,10.07
2022-12-13T05:33:31.316Z,9.30
2022-12-13T05:35:33.880Z,9.13
2022-12-13T05:37:38.499Z,8.50
2022-12-13T05:39:40.142Z,8.80
2022-12-13T05:41:42.135Z,7.93
2022-12-13T05:43:45.752Z,8.60
2022-12-13T05:45:47.442Z,8.10
2022-12-13T05:47:53.441Z,8.90
2022-12-13T05:49:55.144Z,9.67
2022-12-13T05:52:01.943Z,10.83
2022-12-13T05:54:04.710Z,12.23
2022-12-13T05:56:06.820Z,10.53
2022-12-13T05:58:13.263Z,11.20
2022-12-13T06:00:30.156Z,9.23
2022-12-13T06:02:32.578Z,10.03
2022-12-13T06:04:34.306Z,8.93
2022-12-13T06:06:37.538Z,9.07
2022-12-13T06:08:40.083Z,8.53
2022-12-13T06:10:44.456Z,9.00
2022-12-13T06:12:46.124Z,8.90
2022-12-13T06:14:47.748Z,8.63
2022-12-13T06:16:49.414Z,9.10
2022-12-13T06:18:59.308Z,8.30
2022-12-13T06:21:06.916Z,8.27
2022-12-13T06:23:08.649Z,8.47
2022-12-13T06:25:30.935Z,8.60
2022-12-13T06:27:32.248Z,8.40
2022-12-13T06:29:37.261Z,8.47
2022-12-13T06:31:39.182Z,8.40
2022-12-13T06:33:40.863Z,8.43
2022-12-13T06:35:42.778Z,8.60
2022-12-13T06:37:44.439Z,7.97
2022-12-13T06:39:52.452Z,10.40
2022-12-13T06:41:58.391Z,14.93
2022-12-13T06:43:59.899Z,16.07
2022-12-13T06:46:06.111Z,18.43
2022-12-13T06:48:08.490Z,18.20
2022-12-13T06:50:15.030Z,19.90
2022-12-13T06:52:17.157Z,19.53
2022-12-13T06:54:21.924Z,20.00
2022-12-13T06:56:26.647Z,18.93
2022-12-13T06:58:30.280Z,17.70
2022-12-13T07:00:36.886Z,16.17
2022-12-13T07:02:42.818Z,16.07
2022-12-13T07:04:44.716Z,14.17
2022-12-13T07:06:46.400Z,13.23
2022-12-13T07:08:57.388Z,12.53
2022-12-13T07:10:59.048Z,12.37
2022-12-13T07:13:00.730Z,11.70
2022-12-13T07:15:02.515Z,11.93
2022-12-13T07:17:04.643Z,11.03
2022-12-13T07:19:07.064Z,11.87
2022-12-13T07:21:25.176Z,12.50
2022-12-13T07:23:26.769Z,12.90
2022-12-13T07:25:31.678Z,12.93
2022-12-13T07:27:34.303Z,14.00
2022-12-13T07:29:35.921Z,13.97
2022-12-13T07:31:37.819Z,14.77
2022-12-13T07:33:42.857Z,15.43
2022-12-13T07:35:44.830Z,14.30
2022-12-13T07:37:46.383Z,15.27
2022-12-13T07:39:48.117Z,16.70
2022-12-13T07:41:52.554Z,16.20
2022-12-13T07:43:55.771Z,16.43
2022-12-13T07:46:07.176Z,16.07
2022-12-13T07:48:08.885Z,14.93
2022-12-13T07:50:24.338Z,15.03
2022-12-13T07:52:27.327Z,14.00
2022-12-13T07:54:33.095Z,13.93
2022-12-13T07:56:36.352Z,13.97
2022-12-13T07:58:38.936Z,13.13
2022-12-13T08:00:46.781Z,14.07
2022-12-13T08:02:48.701Z,13.13
2022-12-13T08:04:54.986Z,12.57
2022-12-13T08:06:59.654Z,13.60
2022-12-13T08:09:05.669Z,13.03
2022-12-13T08:11:09.934Z,13.43
2022-12-13T08:13:11.670Z,12.37
2022-12-13T08:15:14.236Z,12.33
2022-12-13T08:17:16.200Z,12.47
2022-12-13T08:19:17.856Z,11.93
2022-12-13T08:21:51.939Z,12.03
2022-12-13T08:23:42.468Z,11.83
2022-12-13T08:25:51.836Z,12.50
2022-12-13T08:27:53.736Z,12.80
2022-12-13T08:30:04.040Z,12.93
2022-12-13T08:32:11.877Z,13.07
2022-12-13T08:34:13.490Z,14.50
2022-12-13T08:36:17.819Z,14.93
2022-12-13T08:38:22.953Z,15.70
2022-12-13T08:40:26.487Z,18.40
2022-12-13T08:42:30.721Z,20.07
2022-12-13T08:44:32.437Z,20.17
2022-12-13T08:46:36.944Z,20.20
2022-12-13T08:48:44.275Z,22.13
2022-12-13T08:50:51.157Z,21.70
2022-12-13T08:52:52.806Z,19.57
2022-12-13T08:54:57.088Z,20.27
2022-12-13T08:56:58.943Z,19.00
2022-12-13T08:59:02.365Z,17.67
2022-12-13T09:01:07.009Z,19.23
2022-12-13T09:03:10.048Z,17.83
2022-12-13T09:05:33.518Z,17.20
2022-12-13T09:07:37.203Z,16.80
2022-12-13T09:09:38.812Z,16.57
2022-12-13T09:11:41.007Z,16.77
2022-12-13T09:13:44.018Z,15.03
2022-12-13T09:15:46.512Z,17.37
2022-12-13T09:17:52.444Z,15.73
2022-12-13T09:19:58.105Z,15.97
2022-12-13T09:22:02.621Z,15.27
2022-12-13T09:24:04.882Z,15.70
2022-12-13T09:26:26.203Z,15.00
2022-12-13T09:28:29.297Z,14.40
2022-12-13T09:30:31.791Z,15.03
2022-12-13T09:32:33.985Z,14.27
2022-12-13T09:34:41.500Z,13.10
2022-12-13T09:36:48.120Z,12.77
2022-12-13T09:38:52.188Z,12.93
2022-12-13T09:40:58.947Z,12.40
2022-12-13T09:43:13.431Z,12.27
2022-12-13T09:45:31.692Z,11.87
2022-12-13T09:47:37.945Z,12.53
2022-12-13T09:49:51.788Z,11.63
2022-12-13T09:52:11.723Z,10.97
2022-12-13T09:54:23.261Z,11.03
2022-12-13T09:56:25.098Z,10.93
2022-12-13T09:58:30.306Z,12.23
2022-12-13T10:00:36.778Z,11.37
2022-12-13T10:02:51.195Z,12.20
2022-12-13T10:05:00.713Z,11.97
2022-12-13T10:07:12.911Z,12.57
2022-12-13T10:09:18.665Z,11.63
2022-12-13T10:11:21.565Z,10.93
2022-12-13T10:13:46.287Z,11.80
2022-12-13T10:15:53.935Z,11.33
2022-12-13T10:17:56.412Z,11.00
2022-12-13T10:20:00.827Z,11.80
2022-12-13T10:22:06.105Z,11.17
2022-12-13T10:24:32.994Z,11.20
2022-12-13T10:26:39.706Z,10.93
2022-12-13T10:28:46.091Z,10.80
2022-12-13T10:30:53.785Z,11.13
2022-12-13T10:33:00.980Z,10.20
2022-12-13T10:35:20.545Z,11.13
2022-12-13T10:37:31.570Z,10.87
2022-12-13T10:39:41.896Z,10.47
2022-12-13T10:41:45.595Z,10.63
2022-12-13T10:44:27.195Z,10.53
2022-12-13T10:46:31.232Z,10.63
2022-12-13T10:48:49.076Z,10.67
2022-12-13T10:50:59.938Z,11.00
2022-12-13T10:53:01.949Z,11.33
2022-12-13T10:55:22.915Z,10.57
2022-12-13T10:57:26.024Z,10.63
2022-12-13T10:59:31.913Z,11.13
2022-12-13T11:01:33.870Z,10.20
2022-12-13T11:03:35.774Z,11.77
2022-12-13T11:05:41.347Z,10.20
2022-12-13T11:07:43.005Z,10.20
2022-12-13T11:10:04.706Z,10.33
2022-12-13T11:12:15.485Z,10.47
2022-12-13T11:14:31.710Z,10.40
2022-12-13T11:16:40.655Z,10.33
2022-12-13T11:18:42.581Z,9.77
2022-12-13T11:20:59.417Z,10.70
2022-12-13T11:23:05.368Z,10.13
2022-12-13T11:25:18.541Z,9.77
2022-12-13T11:27:32.896Z,10.20
2022-12-13T11:30:01.121Z,8.67
2022-12-13T11:32:24.685Z,9.87
2022-12-13T11:34:57.791Z,8.97
2022-12-13T11:37:06.027Z,10.63
2022-12-13T11:39:20.293Z,8.63
2022-12-13T11:41:35.304Z,9.83
2022-12-13T11:43:44.157Z,9.93
2022-12-13T11:45:54.484Z,9.57
2022-12-13T11:48:16.192Z,9.60
2022-12-13T11:50:33.953Z,9.33
2022-12-13T11:52:41.120Z,9.13
2022-12-13T11:55:03.800Z,9.40
2022-12-13T11:57:19.529Z,8.70
2022-12-13T11:59:39.650Z,8.87
2022-12-13T12:01:47.804Z,8.57
2022-12-13T12:04:18.185Z,8.13
2022-12-13T12:06:46.254Z,8.57
2022-12-13T12:09:12.011Z,8.10
2022-12-13T12:11:35.801Z,7.30
2022-12-13T12:13:50.407Z,7.90
2022-12-13T12:15:56.212Z,7.97
2022-12-13T12:17:59.140Z,8.17
2022-12-13T12:20:01.211Z,8.60
2022-12-13T12:22:15.844Z,7.77
2022-12-13T12:24:31.622Z,6.93
2022-12-13T12:26:51.889Z,7.70
2022-12-13T12:29:17.538Z,7.40
2022-12-13T12:31:35.699Z,7.57
2022-12-13T12:34:28.070Z,7.73
2022-12-13T12:36:32.665Z,7.77
2022-12-13T12:38:37.396Z,8.07
2022-12-13T12:43:30.765Z,7.90
2022-12-13T12:45:58.398Z,8.27
2022-12-13T12:51:05.857Z,7.83
2022-12-13T12:53:23.731Z,8.00
2022-12-13T12:55:51.326Z,7.97
2022-12-13T12:57:55.919Z,8.03
2022-12-13T13:00:15.969Z,9.17
2022-12-13T13:02:25.215Z,8.97
2022-12-13T13:04:39.259Z,9.20
2022-12-13T13:06:47.273Z,8.63
2022-12-13T13:09:05.149Z,8.67
2022-12-13T13:11:24.500Z,9.00
2022-12-13T13:13:35.464Z,9.30
2022-12-13T13:15:40.414Z,8.33
2022-12-13T13:17:45.060Z,8.73
2022-12-13T13:19:49.664Z,7.73
2022-12-13T13:22:01.610Z,7.20
2022-12-13T13:24:25.285Z,6.93
2022-12-13T13:26:36.206Z,6.37
2022-12-13T13:28:38.737Z,6.33
2022-12-13T13:31:02.261Z,5.80
2022-12-13T13:33:07.115Z,5.70
2022-12-13T13:35:32.248Z,6.33
2022-12-13T13:37:48.358Z,6.43
2022-12-13T13:39:59.610Z,5.27
2022-12-13T13:42:22.050Z,5.63
2022-12-13T13:44:49.784Z,5.90
2022-12-13T13:47:12.230Z,5.83
2022-12-13T13:49:14.331Z,6.10
2022-12-13T13:52:16.694Z,6.40
2022-12-13T13:54:28.984Z,5.97
2022-12-13T13:56:50.088Z,5.80
2022-12-13T13:59:30.012Z,5.90
2022-12-13T14:01:37.535Z,5.93
2022-12-13T14:04:11.696Z,6.03
2022-12-13T14:06:41.847Z,7.20
2022-12-13T14:09:08.177Z,7.20
2022-12-13T14:11:40.233Z,8.70
2022-12-13T14:13:53.969Z,8.17
2022-12-13T14:16:33.301Z,9.37
2022-12-13T14:18:59.316Z,10.03
2022-12-13T14:21:12.591Z,11.20
2022-12-13T14:23:29.799Z,12.80
2022-12-13T14:26:10.811Z,13.07
2022-12-13T14:28:49.947Z,12.10
2022-12-13T14:31:01.409Z,11.60
2022-12-13T14:33:03.470Z,11.40
2022-12-13T14:35:25.717Z,10.93
2022-12-13T14:37:37.866Z,10.33
2022-12-13T14:39:45.205Z,10.30
2022-12-13T14:41:49.521Z,9.10
2022-12-13T14:44:35.312Z,8.03
2022-12-13T14:46:36.968Z,8.10
2022-12-13T14:48:53.683Z,8.67
2022-12-13T14:50:55.410Z,8.50
2022-12-13T14:52:57.695Z,8.40
2022-12-13T14:55:01.464Z,8.10
2022-12-13T14:57:04.721Z,8.23
2022-12-13T14:59:13.296Z,9.30
2022-12-13T15:01:33.339Z,9.20
2022-12-13T15:03:35.253Z,9.07
2022-12-13T15:05:50.915Z,9.73
2022-12-13T15:07:53.273Z,9.17
2022-12-13T15:10:08.347Z,9.20
2022-12-13T15:12:25.446Z,9.57
2022-12-13T15:14:31.716Z,8.70
2022-12-13T15:16:33.666Z,8.13
2022-12-13T15:18:38.749Z,8.57
2022-12-13T15:21:21.015Z,7.53
2022-12-13T15:23:30.095Z,7.80
2022-12-13T15:25:46.183Z,8.10
2022-12-13T15:27:50.376Z,8.40
2022-12-13T15:29:54.323Z,9.10
2022-12-13T15:32:04.395Z,9.57
2022-12-13T15:34:34.865Z,9.10
2022-12-13T15:36:38.587Z,8.40
2022-12-13T15:39:02.966Z,7.37
2022-12-13T15:41:05.115Z,7.00
2022-12-13T15:43:14.725Z,6.10
2022-12-13T15:45:24.390Z,5.97
2022-12-13T15:47:28.513Z,5.90
2022-12-13T15:49:30.742Z,5.70
2022-12-13T15:51:32.423Z,5.80
2022-12-13T15:53:34.465Z,6.20
2022-12-13T15:55:37.003Z,5.83
2022-12-13T15:57:56.777Z,5.60
2022-12-13T16:00:05.569Z,6.03
2022-12-13T16:02:24.348Z,6.27
2022-12-13T16:04:31.629Z,5.97
2022-12-13T16:06:39.203Z,5.10
2022-12-13T16:08:40.787Z,5.60
2022-12-13T16:10:50.551Z,5.50
2022-12-13T16:13:01.040Z,6.23
2022-12-13T16:15:28.597Z,9.30
2022-12-13T16:17:30.721Z,9.63
2022-12-13T16:19:32.699Z,8.90
2022-12-13T16:21:34.328Z,8.07
2022-12-13T16:23:35.960Z,7.17
2022-12-13T16:25:40.129Z,6.17
2022-12-13T16:27:44.357Z,5.90
2022-12-13T16:29:46.221Z,5.97
2022-12-13T16:31:48.947Z,5.50
2022-12-13T16:33:52.669Z,5.83
2022-12-13T16:35:55.663Z,5.53
2022-12-13T16:37:59.402Z,6.90
2022-12-13T16:40:29.126Z,7.13
2022-12-13T16:42:35.584Z,6.77
2022-12-13T16:44:41.083Z,6.27
2022-12-13T16:47:11.452Z,5.97
2022-12-13T16:49:17.748Z,6.10
2022-12-13T16:51:19.720Z,5.70
2022-12-13T16:53:21.343Z,5.80
2022-12-13T16:55:23.460Z,5.73
2022-12-13T16:57:25.257Z,6.27
2022-12-13T16:59:27.682Z,6.03
2022-12-13T17:01:29.528Z,5.97
2022-12-13T17:03:34.401Z,5.60
2022-12-13T17:05:39.701Z,6.33
2022-12-13T17:07:41.212Z,5.97
2022-12-13T17:09:42.919Z,6.27
2022-12-13T17:11:52.464Z,5.80
2022-12-13T17:13:54.411Z,6.27
2022-12-13T17:15:59.177Z,5.93
2022-12-13T17:18:02.067Z,6.63
2022-12-13T17:20:08.764Z,6.20
2022-12-13T17:22:10.601Z,7.30
2022-12-13T17:24:12.764Z,6.87
2022-12-13T17:26:14.429Z,7.00
2022-12-13T17:28:15.978Z,7.23
2022-12-13T17:30:18.127Z,8.00
2022-12-13T17:32:21.942Z,7.70
2022-12-13T17:34:23.818Z,7.47
2022-12-13T17:36:26.953Z,7.43
2022-12-13T17:38:30.655Z,8.50
2022-12-13T17:40:33.428Z,8.40
2022-12-13T17:42:35.130Z,8.50
2022-12-13T17:44:36.992Z,8.50
2022-12-13T17:46:54.514Z,10.13
2022-12-13T17:48:57.198Z,10.80
2022-12-13T17:50:59.304Z,9.97
2022-12-13T17:53:00.836Z,10.53
2022-12-13T17:55:04.545Z,12.30
2022-12-13T17:57:10.381Z,12.27
2022-12-13T17:59:20.353Z,12.50
2022-12-13T18:01:24.460Z,13.40
2022-12-13T18:03:26.908Z,13.70
2022-12-13T18:05:28.706Z,14.47
2022-12-13T18:07:30.627Z,15.20
2022-12-13T18:09:32.207Z,14.60
2022-12-13T18:11:35.218Z,15.63
2022-12-13T18:13:37.279Z,14.47
2022-12-13T18:15:44.718Z,14.17
2022-12-13T18:18:10.568Z,12.87
2022-12-13T18:20:16.739Z,13.00
2022-12-13T18:22:24.541Z,14.17
2022-12-13T18:24:26.420Z,14.40
2022-12-13T18:26:28.365Z,14.43
2022-12-13T18:28:36.539Z,14.87
2022-12-13T18:30:38.429Z,15.27
2022-12-13T18:32:40.557Z,16.37
2022-12-13T18:34:42.234Z,15.97
2022-12-13T18:36:43.934Z,15.07
2022-12-13T18:38:45.687Z,16.53
2022-12-13T18:40:47.627Z,16.63
2022-12-13T18:42:49.253Z,16.97
2022-12-13T18:44:54.498Z,18.03
2022-12-13T18:46:57.809Z,18.27
2022-12-13T18:49:01.266Z,17.30
2022-12-13T18:51:05.709Z,20.43
2022-12-13T18:53:07.444Z,19.17
2022-12-13T18:55:11.706Z,18.67
2022-12-13T18:57:13.687Z,18.10
2022-12-13T18:59:15.469Z,16.40
2022-12-13T19:01:18.755Z,13.47
2022-12-13T19:03:20.519Z,12.60
2022-12-13T19:05:22.309Z,13.00
2022-12-13T19:07:26.596Z,13.10
2022-12-13T19:09:28.182Z,15.80
2022-12-13T19:11:32.186Z,15.97
2022-12-13T19:13:33.835Z,17.33
2022-12-13T19:15:39.619Z,16.37
2022-12-13T19:17:41.263Z,15.30
2022-12-13T19:19:43.960Z,13.83
2022-12-13T19:21:49.846Z,13.53
2022-12-13T19:23:56.857Z,12.27
2022-12-13T19:26:08.594Z,11.63
2022-12-13T19:28:11.607Z,12.10
2022-12-13T19:30:13.390Z,12.17
2022-12-13T19:32:14.943Z,11.33
2022-12-13T19:34:16.592Z,11.83
2022-12-13T19:36:19.436Z,12.30
2022-12-13T19:38:21.082Z,14.63
2022-12-13T19:40:22.680Z,16.73
2022-12-13T19:42:24.349Z,19.83
2022-12-13T19:44:26.119Z,22.53
2022-12-13T19:46:27.913Z,23.50
2022-12-13T19:48:30.377Z,23.03
2022-12-13T19:50:35.120Z,24.40
2022-12-13T19:52:41.663Z,22.47
2022-12-13T19:54:43.574Z,21.87
2022-12-13T19:56:45.435Z,23.43
2022-12-13T19:58:48.574Z,22.17
2022-12-13T20:00:57.098Z,22.47
2022-12-13T20:02:59.262Z,23.10
2022-12-13T20:05:01.841Z,21.40
2022-12-13T20:07:03.476Z,22.10
2022-12-13T20:09:06.366Z,22.03
2022-12-13T20:11:11.472Z,21.03
2022-12-13T20:13:13.901Z,19.77
2022-12-13T20:15:20.816Z,20.57
2022-12-13T20:17:22.551Z,19.07
2022-12-13T20:19:24.520Z,17.60
2022-12-13T20:21:27.654Z,18.17
2022-12-13T20:23:29.993Z,17.23
2022-12-13T20:25:37.331Z,18.23
2022-12-13T20:27:40.070Z,18.77
2022-12-13T20:29:42.087Z,22.60
2022-12-13T20:31:51.763Z,23.43
2022-12-13T20:34:03.107Z,25.43
2022-12-13T20:36:26.492Z,26.17
2022-12-13T20:38:28.479Z,25.83
2022-12-13T20:40:30.237Z,25.33
2022-12-13T20:42:32.960Z,24.27
2022-12-13T20:44:34.901Z,25.93
2022-12-13T20:46:37.152Z,25.07
2022-12-13T20:48:43.026Z,24.77
2022-12-13T20:50:44.718Z,22.47
2022-12-13T20:52:51.871Z,21.67
2022-12-13T20:54:53.531Z,19.73
2022-12-13T20:56:55.574Z,19.53
2022-12-13T20:59:00.496Z,18.53
2022-12-13T21:01:03.069Z,16.70
2022-12-13T21:03:04.861Z,15.63
2022-12-13T21:05:06.990Z,14.47
2022-12-13T21:07:09.253Z,13.80
2022-12-13T21:09:11.448Z,12.60
2022-12-13T21:11:28.388Z,11.60
2022-12-13T21:13:30.125Z,11.70
2022-12-13T21:15:32.193Z,12.00
2022-12-13T21:17:33.777Z,12.03
2022-12-13T21:19:40.209Z,12.80
2022-12-13T21:21:42.694Z,12.43
2022-12-13T21:23:44.367Z,12.97
2022-12-13T21:25:45.950Z,13.40
2022-12-13T21:27:49.853Z,14.00
2022-12-13T21:29:51.700Z,13.77
2022-12-13T21:31:54.693Z,15.40
2022-12-13T21:33:59.512Z,15.60
2022-12-13T21:36:13.171Z,16.27
2022-12-13T21:38:15.892Z,17.00
2022-12-13T21:40:17.583Z,16.53
2022-12-13T21:42:19.969Z,16.97
2022-12-13T21:44:22.147Z,17.70
2022-12-13T21:46:47.438Z,16.97
2022-12-13T21:48:51.644Z,18.20
2022-12-13T21:50:53.258Z,21.07
2022-12-13T21:52:54.731Z,22.97
2022-12-13T21:55:15.358Z,23.53
2022-12-13T21:57:39.060Z,23.60
2022-12-13T21:59:49.186Z,22.37
2022-12-13T22:02:25.514Z,22.07
2022-12-13T22:04:30.342Z,20.40
2022-12-13T22:06:31.944Z,21.03
2022-12-13T22:08:33.624Z,18.80
2022-12-13T22:10:57.073Z,18.27
2022-12-13T22:13:04.398Z,17.20
2022-12-13T22:15:13.060Z,17.03
2022-12-13T22:17:14.690Z,15.13
2022-12-13T22:19:16.880Z,15.83
2022-12-13T22:21:18.608Z,14.03
2022-12-13T22:23:20.395Z,13.67
2022-12-13T22:25:22.035Z,13.40
2022-12-13T22:27:25.094Z,13.00
2022-12-13T22:29:26.617Z,12.10
2022-12-13T22:31:30.038Z,11.50
2022-12-13T22:33:31.899Z,12.10
2022-12-13T22:35:33.677Z,12.10
2022-12-13T22:37:35.365Z,12.23
2022-12-13T22:39:39.618Z,11.90
2022-12-13T22:41:41.322Z,10.83
2022-12-13T22:43:46.305Z,11.57
2022-12-13T22:45:50.050Z,11.27
2022-12-13T22:47:51.679Z,11.10
2022-12-13T22:49:53.313Z,11.50
2022-12-13T22:51:54.976Z,11.37
2022-12-13T22:53:56.666Z,11.00
2022-12-13T22:56:05.313Z,11.07
2022-12-13T22:58:06.850Z,10.27
2022-12-13T23:00:10.203Z,11.43
2022-12-13T23:02:11.912Z,10.87
2022-12-13T23:04:13.569Z,10.73
2022-12-13T23:06:16.377Z,11.07
2022-12-13T23:08:18.191Z,10.43
2022-12-13T23:10:38.326Z,10.20
2022-12-13T23:13:09.090Z,10.70
2022-12-13T23:15:14.450Z,10.33
2022-12-13T23:17:16.037Z,10.60
2022-12-13T23:21:41.340Z,10.03
2022-12-13T23:23:42.956Z,9.30
2022-12-13T23:25:44.680Z,9.33
2022-12-13T23:27:50.712Z,9.30
2022-12-13T23:29:52.264Z,9.13
2022-12-13T23:31:56.258Z,8.90
2022-12-13T23:33:58.022Z,8.80
2022-12-13T23:36:04.981Z,8.90
2022-12-13T23:38:11.091Z,8.80
2022-12-13T23:40:12.624Z,8.33
2022-12-13T23:42:15.601Z,8.00
2022-12-13T23:44:17.125Z,7.40
2022-12-13T23:46:21.634Z,8.03
2022-12-13T23:48:27.168Z,7.60
2022-12-13T23:50:28.942Z,7.67
2022-12-13T23:52:30.650Z,7.80
2022-12-13T23:54:32.383Z,7.93
2022-12-13T23:56:34.196Z,7.03
2022-12-13T23:58:40.842Z,7.37
